Terminal Aerodrome Forecast
Issued by NWS Cleveland, OH

Home | Current Version | Previous Version | Text Only | Print | Product List | Glossary On
Versions: 1 2 3 4 5 6 7 8 9 10 11 12 13
000
FTUS41 KCLE 301736
TAFERI
TAF
KERI 301736Z 3018/3118 29007KT P6SM SCT030 BKN100
     FM302000 31007KT P6SM SCT050
     FM310000 21003KT P6SM SKC
      TEMPO 3110/3112 4SM BR
     FM311400 23005KT P6SM SCT025
     FM311700 27007KT P6SM BKN050=

USA.gov is the U.S. government's official web portal to all federal, state and local government web resources and services.